Flight Track Log - Related Links

Times and Time Zones

All times are in EDT time to prevent confusion due to time zone crossing. See the SKW5606 flight status page for this flight to view local times or setup timezone preferences in your user account.

Time Position Orientation Groundspeed Altitude Reporting Facility
EDT Latitude Longitude Course Direction KTS MPH feet Rate Location/Type
Sat 09:07:11 AM 39.2469 -106.8733 90° East 194 223 25,000  Level Denver Center
Sat 09:08:12 AM 39.2847 -106.9244 314° West 205 236 11,400 -5,262 Descending Denver Center
Sat 09:09:13 AM 39.3319 -106.9581 331° Northwest 235 270 14,300 2,331 Climbing Denver Center
Sat 09:10:00 AM 39.3876 -106.6609 101° East  Level FlightAware Approximate
Sat 09:10:13 AM 39.3606 -106.8697 67° East 282 325 16,100  Level Denver Center
Sat 09:11:00 AM 39.3639 -106.5363 104° East  Level FlightAware Approximate
Sat 09:11:14 AM 39.3589 -106.7517 91° East 328 377 17,400  Level Denver Center
Sat 09:12:00 AM 39.3333 -106.4166 90° East  Level FlightAware Approximate
Sat 09:12:15 AM 39.3556 -106.6111 92° East 383 441 18,600  Level Denver Center
Sat 09:13:15 AM 39.3528 -106.4567 91° East 426 490 19,900 1,190 Climbing Denver Center
Sat 09:14:16 AM 39.3594 -106.3014 87° East 441 507 21,000 541 Climbing Denver Center
Sat 09:15:17 AM 39.3689 -106.1164 86° East 471 542 21,000  Level Denver Center
Sat 09:16:17 AM 39.3767 -105.9481 87° East 467 537 21,000  Level Denver Center
Sat 09:17:18 AM 39.3833 -105.7817 87° East 462 532 21,000  Level Denver Center
Sat 09:18:19 AM 39.3892 -105.6181 87° East 455 524 21,000 -149 Level Denver Center
Sat 09:19:19 AM 39.4008 -105.4744 84° East 386 444 20,700 -893 Descending Denver Center
Sat 09:20:20 AM 39.4581 -105.3661 56° Northeast 361 415 19,200 -1,574 Descending Denver Center
Sat 09:21:21 AM 39.5111 -105.2614 57° Northeast 341 392 17,500 -1,587 Descending Denver Center
Sat 09:22:21 AM 39.5647 -105.1606 55° Northeast 337 388 16,000 -1,190 Descending Denver Center
Sat 09:23:22 AM 39.6169 -105.0581 56° Northeast 338 389 15,100 -787 Descending Denver Center
Sat 09:24:23 AM 39.6650 -104.9681 55° Northeast 309 356 14,400 -793 Descending Denver Center
Sat 09:25:23 AM 39.7083 -104.8836 56° Northeast 288 331 13,500 -942 Descending Denver Center
Sat 09:26:24 AM 39.7756 -104.8414 26° Northeast 260 299 12,500 -992 Descending Denver Center
Sat 09:27:24 AM 39.8439 -104.8408 360° North 245 282 11,500 -793 Descending Denver Center
Sat 09:28:25 AM 39.9122 -104.8392 North 244 281 10,900 -738 Descending Denver Center
Sat 09:29:26 AM 39.9819 -104.8406 359° North 249 287 10,000 -1,131 Descending Denver Center
Sat 09:30:27 AM 40.0506 -104.8289 North 257 296 8,600 -992 Descending Denver Center
Sat 09:31:27 AM 40.0519 -104.7428 89° East 254 292 8,000 -600 Descending Denver Center

Login

Don't have an account? Register now (free) for customized features, flight alerts, and more!